Time,TemperatureF,DewpointF,PressureIn,WindDirection,WindDirectionDegrees,WindSpeedMPH,WindSpeedGustMPH,Humidity,HourlyPrecipIn,Conditions,Clouds,dailyrainin,SoftwareType,DateUTC
2013-03-04 00:00:00,45.0,18.3,30.14,WNW,292,1.0,2.0,34,0.00,CLR,,0.00,WeatherDisplay:10.37,2013-03-04 07:00:00,
2013-03-04 00:10:00,44.0,18.7,30.14,WNW,292,0.0,2.0,36,0.00,CLR,,0.00,WeatherDisplay:10.37,2013-03-04 07:10:00,
2013-03-04 00:20:00,44.0,19.4,30.14,WNW,298,2.0,5.0,37,0.00,CLR,,0.00,WeatherDisplay:10.37,2013-03-04 07:20:00,
2013-03-04 00:30:00,44.0,20.0,30.13,NNW,342,2.0,5.0,38,0.00,CLR,,0.00,WeatherDisplay:10.37,2013-03-04 07:30:00,
2013-03-04 00:40:00,44.0,20.0,30.13,NNE,22,0.0,3.0,38,0.00,CLR,,0.00,WeatherDisplay:10.37,2013-03-04 07:40:00,
2013-03-04 00:50:00,44.0,21.2,30.13,NNE,22,0.0,0.0,40,0.00,CLR,,0.00,WeatherDisplay:10.37,2013-03-04 07:50:00,
2013-03-04 01:00:00,44.0,20.0,30.13,North,9,0.0,0.0,38,0.00,CLR,,0.00,WeatherDisplay:10.37,2013-03-04 08:00:00,
2013-03-04 01:10:00,44.0,19.4,30.13,NNW,337,0.0,0.0,37,0.00,CLR,,0.00,WeatherDisplay:10.37,2013-03-04 08:10:00,
2013-03-04 01:20:00,45.0,19.0,30.13,NNW,337,1.0,2.0,35,0.00,CLR,,0.00,WeatherDisplay:10.37,2013-03-04 08:20:00,
2013-03-04 01:30:00,46.0,19.2,30.12,NNW,337,0.0,1.0,34,0.00,CLR,,0.00,WeatherDisplay:10.37,2013-03-04 08:30:00,
2013-03-04 01:40:00,46.0,19.8,30.11,NNW,337,0.0,0.0,35,0.00,CLR,,0.00,WeatherDisplay:10.37,2013-03-04 08:40:00,
2013-03-04 01:50:00,45.0,19.0,30.11,NE,37,0.0,1.0,35,0.00,CLR,,0.00,WeatherDisplay:10.37,2013-03-04 08:50:00,
2013-03-04 02:00:00,44.0,19.4,30.11,NE,45,0.0,2.0,37,0.00,CLR,,0.00,WeatherDisplay:10.37,2013-03-04 09:00:00,
2013-03-04 02:10:00,44.0,21.8,30.12,NE,45,2.0,3.0,41,0.00,CLR,,0.00,WeatherDisplay:10.37,2013-03-04 09:10:00,
2013-03-04 02:20:00,43.3,20.0,30.12,NE,45,0.0,3.0,39,0.00,CLR,,0.00,WeatherDisplay:10.37,2013-03-04 09:20:00,
2013-03-04 02:30:00,44.0,20.0,30.12,NE,45,1.0,3.0,38,0.00,CLR,,0.00,WeatherDisplay:10.37,2013-03-04 09:30:00,
2013-03-04 02:40:00,45.0,20.9,30.11,NE,45,2.0,3.0,38,0.00,CLR,,0.00,WeatherDisplay:10.37,2013-03-04 09:40:00,
2013-03-04 02:50:00,45.0,22.1,30.11,North,1,0.0,2.0,40,0.00,CLR,,0.00,WeatherDisplay:10.37,2013-03-04 09:50:00,
2013-03-04 03:00:00,45.0,20.3,30.11,North,360,0.0,2.0,37,0.00,CLR,,0.00,WeatherDisplay:10.37,2013-03-04 10:00:00,
2013-03-04 03:10:00,46.0,21.8,30.10,North,360,0.0,4.0,38,0.00,CLR,,0.00,WeatherDisplay:10.37,2013-03-04 10:10:00,
2013-03-04 03:20:00,46.0,21.1,30.10,North,360,1.0,3.0,37,0.00,CLR,,0.00,WeatherDisplay:10.37,2013-03-04 10:20:00,
2013-03-04 03:30:00,47.3,19.6,30.09,West,270,2.0,8.0,33,0.00,CLR,,0.00,WeatherDisplay:10.37,2013-03-04 10:30:00,
2013-03-04 03:40:00,48.3,19.8,30.08,SW,236,1.0,5.0,32,0.00,CLR,,0.00,WeatherDisplay:10.37,2013-03-04 10:40:00,
2013-03-04 03:50:00,51.0,18.1,30.07,ESE,113,2.0,6.0,27,0.00,CLR,,0.00,WeatherDisplay:10.37,2013-03-04 10:50:00,
2013-03-04 04:00:00,53.0,19.9,30.05,South,188,2.0,12.0,27,0.00,CLR,,0.00,WeatherDisplay:10.37,2013-03-04 11:00:00,
2013-03-04 04:10:00,55.0,18.8,30.05,SSW,205,2.0,12.0,24,0.00,CLR,,0.00,WeatherDisplay:10.37,2013-03-04 11:10:00,
2013-03-04 04:20:00,56.0,23.3,30.04,WSW,239,5.0,16.0,28,0.00,CLR,,0.00,WeatherDisplay:10.37,2013-03-04 11:20:00,
2013-03-04 04:30:00,58.0,20.4,30.03,WSW,244,6.0,17.0,23,0.00,CLR,,0.00,WeatherDisplay:10.37,2013-03-04 11:30:00,
2013-03-04 04:40:00,58.0,23.3,30.02,West,263,8.0,14.0,26,0.00,CLR,,0.00,WeatherDisplay:10.37,2013-03-04 11:40:00,
2013-03-04 04:50:00,57.0,25.8,30.02,WSW,248,3.0,16.0,30,0.00,CLR,,0.00,WeatherDisplay:10.37,2013-03-04 11:50:00,
2013-03-04 05:00:00,54.0,26.9,30.04,South,184,2.0,6.0,35,0.00,CLR,,0.00,WeatherDisplay:10.37,2013-03-04 12:00:00,
2013-03-04 05:10:00,56.0,19.7,30.05,South,183,6.0,12.0,24,0.00,CLR,,0.00,WeatherDisplay:10.37,2013-03-04 12:10:00,
2013-03-04 05:20:00,57.0,22.4,30.04,South,175,2.0,7.0,26,0.00,CLR,,0.00,WeatherDisplay:10.37,2013-03-04 12:20:00,
2013-03-04 05:30:00,56.0,24.2,30.05,SE,142,0.0,8.0,29,0.00,CLR,,0.00,WeatherDisplay:10.37,2013-03-04 12:30:00,
2013-03-04 05:40:00,54.7,26.8,30.07,SSE,155,2.0,7.0,34,0.00,CLR,,0.00,WeatherDisplay:10.37,2013-03-04 12:40:00,
2013-03-04 05:50:00,54.4,21.9,30.07,South,171,3.0,7.0,28,0.00,CLR,,0.00,WeatherDisplay:10.37,2013-03-04 12:50:00,
2013-03-04 06:00:00,55.0,21.6,30.04,SE,138,5.0,8.0,27,0.00,CLR,,0.00,WeatherDisplay:10.37,2013-03-04 13:00:00,
2013-03-04 06:10:00,54.0,21.6,30.04,SE,134,7.0,10.0,28,0.00,CLR,,0.00,WeatherDisplay:10.37,2013-03-04 13:10:00,
2013-03-04 06:20:00,54.0,19.8,30.05,SSW,199,1.0,10.0,26,0.00,CLR,,0.00,WeatherDisplay:10.37,2013-03-04 13:20:00,
2013-03-04 06:30:00,54.0,19.8,30.06,SSW,212,3.0,4.0,26,0.00,CLR,,0.00,WeatherDisplay:10.37,2013-03-04 13:30:00,
2013-03-04 06:40:00,53.0,21.6,30.06,SSW,208,1.0,4.0,29,0.00,CLR,,0.00,WeatherDisplay:10.37,2013-03-04 13:40:00,
2013-03-04 06:50:00,51.0,21.4,30.07,SSW,210,3.0,5.0,31,0.00,CLR,,0.00,WeatherDisplay:10.37,2013-03-04 13:50:00,
2013-03-04 07:00:00,50.0,23.4,30.07,SSW,202,3.0,6.0,35,0.00,CLR,,0.00,WeatherDisplay:10.37,2013-03-04 14:00:00,
2013-03-04 07:10:00,50.0,23.4,30.07,SSW,202,3.0,6.0,35,0.00,CLR,,0.00,WeatherDisplay:10.37,2013-03-04 14:10:00,
2013-03-04 07:20:00,50.0,23.4,30.07,SSW,202,5.0,6.0,35,0.00,CLR,,0.00,WeatherDisplay:10.37,2013-03-04 14:20:00,
2013-03-04 07:30:00,51.0,22.9,30.06,South,185,5.0,7.0,33,0.00,CLR,,0.00,WeatherDisplay:10.37,2013-03-04 14:30:00,
2013-03-04 07:40:00,52.3,16.5,30.06,SSW,193,8.0,10.0,24,0.00,CLR,,0.00,WeatherDisplay:10.37,2013-03-04 14:40:00,
2013-03-04 07:50:00,54.0,16.0,30.05,South,178,8.0,12.0,22,0.00,CLR,,0.00,WeatherDisplay:10.37,2013-03-04 14:50:00,
2013-03-04 08:00:00,56.0,16.6,30.04,South,174,6.0,12.0,21,0.00,CLR,,0.00,WeatherDisplay:10.37,2013-03-04 15:00:00,
2013-03-04 08:10:00,59.0,15.5,30.03,South,181,7.0,10.0,18,0.00,CLR,,0.00,WeatherDisplay:10.37,2013-03-04 15:10:00,
2013-03-04 08:20:00,61.0,17.1,30.01,South,189,7.0,10.0,18,0.00,CLR,,0.00,WeatherDisplay:10.37,2013-03-04 15:20:00,
2013-03-04 08:30:00,64.0,12.1,30.00,SSW,206,12.0,17.0,13,0.00,CLR,,0.00,WeatherDisplay:10.37,2013-03-04 15:30:00,
2013-03-04 08:40:00,65.3,13.1,29.98,SW,214,9.0,17.0,13,0.00,CLR,,0.00,WeatherDisplay:10.37,2013-03-04 15:40:00,
2013-03-04 08:50:00,66.0,15.4,29.98,SW,220,15.0,20.0,14,0.00,CLR,,0.00,WeatherDisplay:10.37,2013-03-04 15:50:00,
2013-03-04 09:00:00,65.0,24.1,29.99,SW,225,14.0,23.0,21,0.00,CLR,,0.00,WeatherDisplay:10.37,2013-03-04 16:00:00,
2013-03-04 09:10:00,66.0,27.1,29.99,SW,230,16.0,27.0,23,0.00,CLR,,0.00,WeatherDisplay:10.37,2013-03-04 16:10:00,
2013-03-04 09:20:00,65.0,27.3,29.99,SW,228,14.0,24.0,24,0.00,CLR,,0.00,WeatherDisplay:10.37,2013-03-04 16:20:00,
2013-03-04 09:30:00,65.0,27.3,29.99,SW,226,17.0,25.0,24,0.00,CLR,,0.00,WeatherDisplay:10.37,2013-03-04 16:30:00,
2013-03-04 09:40:00,66.3,27.4,29.98,SW,232,15.0,25.0,23,0.00,CLR,,0.00,WeatherDisplay:10.37,2013-03-04 16:40:00,
2013-03-04 09:50:00,67.0,27.9,29.97,SW,232,15.0,27.0,23,0.00,CLR,,0.00,WeatherDisplay:10.37,2013-03-04 16:50:00,
2013-03-04 10:00:00,68.0,29.8,29.97,SW,229,16.0,25.0,24,0.00,CLR,,0.00,WeatherDisplay:10.37,2013-03-04 17:00:00,
2013-03-04 10:10:00,68.0,27.7,29.96,SW,236,16.0,26.0,22,0.00,CLR,,0.00,WeatherDisplay:10.37,2013-03-04 17:10:00,
2013-03-04 10:20:00,69.0,28.5,29.96,SW,227,13.0,20.0,22,0.00,CLR,,0.00,WeatherDisplay:10.37,2013-03-04 17:20:00,
2013-03-04 10:30:00,69.7,26.8,29.95,SSW,210,16.0,25.0,20,0.00,CLR,,0.00,WeatherDisplay:10.37,2013-03-04 17:30:00,
2013-03-04 10:40:00,70.0,29.4,29.95,SW,220,13.0,28.0,22,0.00,CLR,,0.00,WeatherDisplay:10.37,2013-03-04 17:40:00,
2013-03-04 10:50:00,70.0,30.5,29.95,SW,227,14.0,23.0,23,0.00,CLR,,0.00,WeatherDisplay:10.37,2013-03-04 17:50:00,
2013-03-04 11:00:00,70.0,30.5,29.95,SW,217,15.0,25.0,23,0.00,CLR,,0.00,WeatherDisplay:10.37,2013-03-04 18:00:00,
2013-03-04 11:10:00,71.0,32.4,29.95,SW,223,14.0,22.0,24,0.00,CLR,,0.00,WeatherDisplay:10.37,2013-03-04 18:10:00,
2013-03-04 11:20:00,70.0,31.5,29.95,SW,222,16.0,26.0,24,0.00,CLR,,0.00,WeatherDisplay:10.37,2013-03-04 18:20:00,
2013-03-04 11:30:00,70.0,31.5,29.95,SW,224,16.0,26.0,24,0.00,CLR,,0.00,WeatherDisplay:10.37,2013-03-04 18:30:00,
2013-03-04 11:40:00,71.0,33.4,29.95,WSW,242,17.0,27.0,25,0.00,CLR,,0.00,WeatherDisplay:10.37,2013-03-04 18:40:00,
2013-03-04 11:50:00,71.0,34.4,29.95,WSW,238,16.0,26.0,26,0.00,CLR,,0.00,WeatherDisplay:10.37,2013-03-04 18:50:00,
2013-03-04 12:00:00,71.0,33.4,29.94,WSW,238,17.0,27.0,25,0.00,CLR,,0.00,WeatherDisplay:10.37,2013-03-04 19:00:00,
2013-03-04 12:10:00,71.0,34.4,29.94,WSW,257,20.0,28.0,26,0.00,CLR,,0.00,WeatherDisplay:10.37,2013-03-04 19:10:00,
2013-03-04 12:20:00,71.7,29.7,29.94,West,262,13.0,25.0,21,0.00,CLR,,0.00,WeatherDisplay:10.37,2013-03-04 19:20:00,
2013-03-04 12:30:00,71.0,31.3,29.94,West,269,16.0,29.0,23,0.00,CLR,,0.00,WeatherDisplay:10.37,2013-03-04 19:30:00,
2013-03-04 12:40:00,70.7,28.8,29.94,West,272,13.0,20.0,21,0.00,CLR,,0.00,WeatherDisplay:10.37,2013-03-04 19:40:00,
2013-03-04 12:50:00,71.0,26.6,29.94,West,270,14.0,22.0,19,0.00,CLR,,0.00,WeatherDisplay:10.37,2013-03-04 19:50:00,
2013-03-04 13:00:00,71.0,30.2,29.94,West,273,13.0,22.0,22,0.00,CLR,,0.00,WeatherDisplay:10.37,2013-03-04 20:00:00,
2013-03-04 13:10:00,70.7,30.0,29.94,West,275,16.0,24.0,22,0.00,CLR,,0.00,WeatherDisplay:10.37,2013-03-04 20:10:00,
2013-03-04 13:20:00,70.0,29.4,29.94,West,267,16.0,28.0,22,0.00,CLR,,0.00,WeatherDisplay:10.37,2013-03-04 20:20:00,
2013-03-04 13:30:00,71.0,30.2,29.92,West,259,17.0,26.0,22,0.00,CLR,,0.00,WeatherDisplay:10.37,2013-03-04 20:30:00,
2013-03-04 13:40:00,70.0,30.5,29.93,West,267,15.0,25.0,23,0.00,CLR,,0.00,WeatherDisplay:10.37,2013-03-04 20:40:00,
2013-03-04 13:50:00,70.0,30.5,29.93,West,270,16.0,26.0,23,0.00,CLR,,0.00,WeatherDisplay:10.37,2013-03-04 20:50:00,
2013-03-04 14:00:00,71.0,29.1,29.93,West,265,15.0,28.0,21,0.00,CLR,,0.00,WeatherDisplay:10.37,2013-03-04 21:00:00,
2013-03-04 14:10:00,71.0,30.2,29.92,West,265,16.0,28.0,22,0.00,CLR,,0.00,WeatherDisplay:10.37,2013-03-04 21:10:00,
2013-03-04 14:20:00,71.0,29.1,29.93,West,264,20.0,35.0,21,0.00,CLR,,0.00,WeatherDisplay:10.37,2013-03-04 21:20:00,
2013-03-04 14:30:00,70.0,27.0,29.92,West,273,20.0,31.0,20,0.00,CLR,,0.00,WeatherDisplay:10.37,2013-03-04 21:30:00,
2013-03-04 14:40:00,70.7,27.6,29.93,West,268,17.0,35.0,20,0.00,CLR,,0.00,WeatherDisplay:10.37,2013-03-04 21:40:00,
2013-03-04 14:50:00,70.0,27.0,29.93,WSW,256,18.0,30.0,20,0.00,CLR,,0.00,WeatherDisplay:10.37,2013-03-04 21:50:00,
2013-03-04 15:00:00,70.0,25.8,29.94,WSW,255,16.0,29.0,19,0.00,CLR,,0.00,WeatherDisplay:10.37,2013-03-04 22:00:00,
2013-03-04 15:10:00,70.3,26.1,29.94,West,263,14.0,26.0,19,0.00,CLR,,0.00,WeatherDisplay:10.37,2013-03-04 22:10:00,
2013-03-04 15:20:00,71.0,27.9,29.94,West,264,15.0,27.0,20,0.00,CLR,,0.00,WeatherDisplay:10.37,2013-03-04 22:20:00,
2013-03-04 15:30:00,71.0,26.6,29.95,WSW,256,14.0,25.0,19,0.00,CLR,,0.00,WeatherDisplay:10.37,2013-03-04 22:30:00,
2013-03-04 15:40:00,70.0,27.0,29.95,WNW,290,14.0,23.0,20,0.00,CLR,,0.00,WeatherDisplay:10.37,2013-03-04 22:40:00,
2013-03-04 15:50:00,70.0,27.0,29.95,WNW,287,13.0,17.0,20,0.00,CLR,,0.00,WeatherDisplay:10.37,2013-03-04 22:50:00,
2013-03-04 16:00:00,69.7,28.0,29.96,WNW,293,17.0,23.0,21,0.00,CLR,,0.00,WeatherDisplay:10.37,2013-03-04 23:00:00,
2013-03-04 16:10:00,68.0,28.8,29.97,NW,304,15.0,23.0,23,0.00,CLR,,0.00,WeatherDisplay:10.37,2013-03-04 23:10:00,
2013-03-04 16:20:00,66.0,28.1,29.98,WNW,288,14.0,23.0,24,0.00,CLR,,0.00,WeatherDisplay:10.37,2013-03-04 23:20:00,
2013-03-04 16:30:00,66.0,28.1,29.99,WNW,293,15.0,24.0,24,0.00,CLR,,0.00,WeatherDisplay:10.37,2013-03-04 23:30:00,
2013-03-04 16:40:00,66.0,28.1,30.00,WNW,289,13.0,20.0,24,0.00,CLR,,0.00,WeatherDisplay:10.37,2013-03-04 23:40:00,
2013-03-04 16:50:00,66.0,29.1,30.00,WNW,294,13.0,22.0,25,0.00,CLR,,0.00,WeatherDisplay:10.37,2013-03-04 23:50:00,
2013-03-04 17:00:00,66.0,29.1,30.00,WNW,294,12.0,20.0,25,0.00,CLR,,0.00,WeatherDisplay:10.37,2013-03-05 00:00:00,
2013-03-04 17:10:00,65.0,28.3,30.01,NW,306,13.0,18.0,25,0.00,CLR,,0.00,WeatherDisplay:10.37,2013-03-05 00:10:00,
2013-03-04 17:20:00,65.0,28.3,30.03,WNW,301,15.0,20.0,25,0.00,CLR,,0.00,WeatherDisplay:10.37,2013-03-05 00:20:00,
2013-03-04 17:30:00,64.0,28.4,30.03,NW,316,12.0,18.0,26,0.00,CLR,,0.00,WeatherDisplay:10.37,2013-03-05 00:30:00,
2013-03-04 17:40:00,63.7,28.1,30.04,NW,310,14.0,18.0,26,0.00,CLR,,0.00,WeatherDisplay:10.37,2013-03-05 00:40:00,
2013-03-04 17:50:00,63.0,27.5,30.05,NW,315,12.0,20.0,26,0.00,CLR,,0.00,WeatherDisplay:10.37,2013-03-05 00:50:00,
2013-03-04 18:00:00,62.0,26.7,30.05,NW,308,9.0,20.0,26,0.00,CLR,,0.00,WeatherDisplay:10.37,2013-03-05 01:00:00,
2013-03-04 18:10:00,61.0,27.6,30.06,WNW,299,10.0,15.0,28,0.00,CLR,,0.00,WeatherDisplay:10.37,2013-03-05 01:10:00,
2013-03-04 18:20:00,60.0,26.8,30.07,WNW,292,7.0,13.0,28,0.00,CLR,,0.00,WeatherDisplay:10.37,2013-03-05 01:20:00,
2013-03-04 18:30:00,60.0,26.8,30.08,WNW,298,8.0,17.0,28,0.00,CLR,,0.00,WeatherDisplay:10.37,2013-03-05 01:30:00,
2013-03-04 18:40:00,58.0,26.7,30.10,NNW,331,6.0,12.0,30,0.00,CLR,,0.00,WeatherDisplay:10.37,2013-03-05 01:40:00,
2013-03-04 18:50:00,56.7,27.2,30.11,WNW,303,6.0,7.0,32,0.00,CLR,,0.00,WeatherDisplay:10.37,2013-03-05 01:50:00,
2013-03-04 19:00:00,56.0,27.3,30.12,NW,313,7.0,9.0,33,0.00,CLR,,0.00,WeatherDisplay:10.37,2013-03-05 02:00:00,
2013-03-04 19:10:00,55.0,26.4,30.13,NW,315,5.0,9.0,33,0.00,CLR,,0.00,WeatherDisplay:10.37,2013-03-05 02:10:00,
2013-03-04 19:20:00,53.0,26.0,30.15,NW,315,5.0,7.0,35,0.00,CLR,,0.00,WeatherDisplay:10.37,2013-03-05 02:20:00,
2013-03-04 19:30:00,52.0,27.1,30.15,NW,315,5.0,6.0,38,0.00,CLR,,0.00,WeatherDisplay:10.37,2013-03-05 02:30:00,
2013-03-04 19:40:00,50.0,25.4,30.17,NW,315,2.0,5.0,38,0.00,CLR,,0.00,WeatherDisplay:10.37,2013-03-05 02:40:00,
2013-03-04 19:50:00,49.0,25.7,30.16,NW,315,5.0,6.0,40,0.00,CLR,,0.00,WeatherDisplay:10.37,2013-03-05 02:50:00,
2013-03-04 20:00:00,50.0,26.6,30.16,NW,308,6.0,7.0,40,0.00,CLR,,0.00,WeatherDisplay:10.37,2013-03-05 03:00:00,
2013-03-04 20:10:00,52.0,26.5,30.16,WNW,292,7.0,9.0,37,0.00,CLR,,0.00,WeatherDisplay:10.37,2013-03-05 03:10:00,
2013-03-04 20:20:00,52.0,25.8,30.15,NW,306,6.0,9.0,36,0.00,CLR,,0.00,WeatherDisplay:10.37,2013-03-05 03:20:00,
2013-03-04 20:30:00,51.0,25.0,30.17,NW,315,2.0,7.0,36,0.00,CLR,,0.00,WeatherDisplay:10.37,2013-03-05 03:30:00,
2013-03-04 20:40:00,49.0,23.8,30.18,NW,315,3.0,5.0,37,0.00,CLR,,0.00,WeatherDisplay:10.37,2013-03-05 03:40:00,
2013-03-04 20:50:00,48.0,23.6,30.20,NW,315,3.0,6.0,38,0.00,CLR,,0.00,WeatherDisplay:10.37,2013-03-05 03:50:00,
2013-03-04 21:00:00,47.7,23.3,30.21,NNW,337,2.0,6.0,38,0.00,CLR,,0.00,WeatherDisplay:10.37,2013-03-05 04:00:00,
2013-03-04 21:10:00,45.0,22.7,30.22,ENE,67,0.0,1.0,41,0.00,CLR,,0.00,WeatherDisplay:10.37,2013-03-05 04:10:00,
2013-03-04 21:20:00,48.0,24.2,30.22,WNW,303,7.0,9.0,39,0.00,CLR,,0.00,WeatherDisplay:10.37,2013-03-05 04:20:00,
2013-03-04 21:30:00,49.0,23.2,30.21,WNW,298,6.0,8.0,36,0.00,CLR,,0.00,WeatherDisplay:10.37,2013-03-05 04:30:00,
2013-03-04 21:40:00,48.0,22.9,30.21,NNW,338,6.0,9.0,37,0.00,CLR,,0.00,WeatherDisplay:10.37,2013-03-05 04:40:00,
2013-03-04 21:50:00,47.0,22.0,30.22,NNW,337,3.0,7.0,37,0.00,CLR,,0.00,WeatherDisplay:10.37,2013-03-05 04:50:00,
2013-03-04 22:00:00,44.0,23.5,30.23,NE,39,8.0,12.0,44,0.00,CLR,,0.00,WeatherDisplay:10.37,2013-03-05 05:00:00,
2013-03-04 22:10:00,42.0,21.6,30.25,North,8,6.0,7.0,44,0.00,CLR,,0.00,WeatherDisplay:10.37,2013-03-05 05:10:00,
2013-03-04 22:20:00,44.0,22.4,30.24,NNW,337,6.0,9.0,42,0.00,CLR,,0.00,WeatherDisplay:10.37,2013-03-05 05:20:00,
2013-03-04 22:30:00,44.0,22.9,30.23,NNW,337,6.0,7.0,43,0.00,CLR,,0.00,WeatherDisplay:10.37,2013-03-05 05:30:00,
2013-03-04 22:40:00,43.0,22.5,30.24,North,360,6.0,7.0,44,0.00,CLR,,0.00,WeatherDisplay:10.37,2013-03-05 05:40:00,
2013-03-04 22:50:00,43.0,22.5,30.25,North,360,6.0,8.0,44,0.00,CLR,,0.00,WeatherDisplay:10.37,2013-03-05 05:50:00,
2013-03-04 23:00:00,43.0,23.1,30.24,North,360,6.0,8.0,45,0.00,CLR,,0.00,WeatherDisplay:10.37,2013-03-05 06:00:00,
2013-03-04 23:10:00,41.0,22.3,30.25,NNE,21,5.0,7.0,47,0.00,CLR,,0.00,WeatherDisplay:10.37,2013-03-05 06:10:00,
2013-03-04 23:20:00,38.0,22.8,30.28,NE,45,5.0,7.0,54,0.00,CLR,,0.00,WeatherDisplay:10.37,2013-03-05 06:20:00,
2013-03-04 23:30:00,37.0,22.7,30.30,NE,35,6.0,7.0,56,0.00,CLR,,0.00,WeatherDisplay:10.37,2013-03-05 06:30:00,
2013-03-04 23:40:00,36.0,22.2,30.29,NNW,347,6.0,7.0,57,0.00,CLR,,0.00,WeatherDisplay:10.37,2013-03-05 06:40:00,
2013-03-04 23:50:00,37.0,23.2,30.30,NNW,337,5.0,6.0,57,0.00,CLR,,0.00,WeatherDisplay:10.37,2013-03-05 06:50:00,